sensor_id;sensor_type;location;lat;lon;timestamp;P1;durP1;ratioP1;P2;durP2;ratioP2
46086;SDS011;31824;49.648;8.640;2024-02-28T00:01:24;12.68;;;5.75;;
46086;SDS011;31824;49.648;8.640;2024-02-28T00:04:26;12.45;;;5.25;;
46086;SDS011;31824;49.648;8.640;2024-02-28T00:07:28;12.68;;;5.32;;
46086;SDS011;31824;49.648;8.640;2024-02-28T00:10:31;14.52;;;5.88;;
46086;SDS011;31824;49.648;8.640;2024-02-28T00:13:33;11.88;;;5.05;;
46086;SDS011;31824;49.648;8.640;2024-02-28T00:16:35;12.30;;;5.43;;
46086;SDS011;31824;49.648;8.640;2024-02-28T00:19:37;15.23;;;5.63;;
46086;SDS011;31824;49.648;8.640;2024-02-28T00:22:38;14.20;;;5.43;;
46086;SDS011;31824;49.648;8.640;2024-02-28T00:25:42;12.00;;;5.32;;
46086;SDS011;31824;49.648;8.640;2024-02-28T00:28:43;12.43;;;5.60;;
46086;SDS011;31824;49.648;8.640;2024-02-28T00:31:45;11.65;;;5.28;;
46086;SDS011;31824;49.648;8.640;2024-02-28T00:34:47;11.45;;;5.90;;
46086;SDS011;31824;49.648;8.640;2024-02-28T00:37:49;11.52;;;5.00;;
46086;SDS011;31824;49.648;8.640;2024-02-28T00:40:52;13.68;;;5.60;;
46086;SDS011;31824;49.648;8.640;2024-02-28T00:43:53;12.00;;;5.30;;
46086;SDS011;31824;49.648;8.640;2024-02-28T00:46:55;12.57;;;5.18;;
46086;SDS011;31824;49.648;8.640;2024-02-28T00:49:57;12.63;;;5.13;;
46086;SDS011;31824;49.648;8.640;2024-02-28T00:52:59;11.98;;;5.18;;
46086;SDS011;31824;49.648;8.640;2024-02-28T00:56:02;13.52;;;5.38;;
46086;SDS011;31824;49.648;8.640;2024-02-28T00:59:05;12.65;;;5.03;;
46086;SDS011;31824;49.648;8.640;2024-02-28T01:02:07;12.82;;;5.20;;
46086;SDS011;31824;49.648;8.640;2024-02-28T01:05:09;12.63;;;5.43;;
46086;SDS011;31824;49.648;8.640;2024-02-28T01:08:11;11.95;;;5.25;;
46086;SDS011;31824;49.648;8.640;2024-02-28T01:11:15;11.88;;;4.97;;
46086;SDS011;31824;49.648;8.640;2024-02-28T01:14:16;10.15;;;4.25;;
46086;SDS011;31824;49.648;8.640;2024-02-28T01:17:18;14.10;;;5.55;;
46086;SDS011;31824;49.648;8.640;2024-02-28T01:20:20;9.55;;;4.50;;
46086;SDS011;31824;49.648;8.640;2024-02-28T01:23:22;10.23;;;4.53;;
46086;SDS011;31824;49.648;8.640;2024-02-28T01:26:25;9.95;;;4.65;;
46086;SDS011;31824;49.648;8.640;2024-02-28T01:29:27;9.88;;;4.60;;
46086;SDS011;31824;49.648;8.640;2024-02-28T01:32:29;10.25;;;4.35;;
46086;SDS011;31824;49.648;8.640;2024-02-28T01:35:31;11.13;;;4.75;;
46086;SDS011;31824;49.648;8.640;2024-02-28T01:38:32;10.55;;;5.05;;
46086;SDS011;31824;49.648;8.640;2024-02-28T01:41:36;13.77;;;4.85;;
46086;SDS011;31824;49.648;8.640;2024-02-28T01:44:41;10.48;;;4.72;;
46086;SDS011;31824;49.648;8.640;2024-02-28T01:47:46;14.32;;;5.32;;
46086;SDS011;31824;49.648;8.640;2024-02-28T01:50:47;11.70;;;5.15;;
46086;SDS011;31824;49.648;8.640;2024-02-28T01:53:50;13.20;;;5.80;;
46086;SDS011;31824;49.648;8.640;2024-02-28T01:56:55;11.98;;;5.18;;
46086;SDS011;31824;49.648;8.640;2024-02-28T01:59:57;12.20;;;5.50;;
46086;SDS011;31824;49.648;8.640;2024-02-28T02:02:59;12.38;;;5.07;;
46086;SDS011;31824;49.648;8.640;2024-02-28T02:06:01;9.90;;;5.18;;
46086;SDS011;31824;49.648;8.640;2024-02-28T02:09:04;12.70;;;5.25;;
46086;SDS011;31824;49.648;8.640;2024-02-28T02:12:07;11.00;;;5.50;;
46086;SDS011;31824;49.648;8.640;2024-02-28T02:15:09;13.30;;;5.25;;
46086;SDS011;31824;49.648;8.640;2024-02-28T02:18:11;10.45;;;5.10;;
46086;SDS011;31824;49.648;8.640;2024-02-28T02:21:15;12.27;;;5.22;;
46086;SDS011;31824;49.648;8.640;2024-02-28T02:24:21;12.13;;;5.70;;
46086;SDS011;31824;49.648;8.640;2024-02-28T02:27:23;11.57;;;5.05;;
46086;SDS011;31824;49.648;8.640;2024-02-28T02:30:27;11.55;;;5.63;;
46086;SDS011;31824;49.648;8.640;2024-02-28T02:33:29;10.70;;;4.97;;
46086;SDS011;31824;49.648;8.640;2024-02-28T02:36:30;12.27;;;5.93;;
46086;SDS011;31824;49.648;8.640;2024-02-28T02:39:34;11.48;;;5.38;;
46086;SDS011;31824;49.648;8.640;2024-02-28T02:42:36;13.45;;;5.78;;
46086;SDS011;31824;49.648;8.640;2024-02-28T02:45:37;12.95;;;6.00;;
46086;SDS011;31824;49.648;8.640;2024-02-28T02:48:39;12.52;;;5.75;;
46086;SDS011;31824;49.648;8.640;2024-02-28T02:51:41;12.07;;;5.03;;
46086;SDS011;31824;49.648;8.640;2024-02-28T02:54:46;9.63;;;4.90;;
46086;SDS011;31824;49.648;8.640;2024-02-28T02:57:48;11.23;;;5.35;;
46086;SDS011;31824;49.648;8.640;2024-02-28T03:00:50;14.02;;;6.10;;
46086;SDS011;31824;49.648;8.640;2024-02-28T03:03:51;11.43;;;5.68;;
46086;SDS011;31824;49.648;8.640;2024-02-28T03:06:54;12.27;;;5.32;;
46086;SDS011;31824;49.648;8.640;2024-02-28T03:09:57;12.70;;;6.10;;
46086;SDS011;31824;49.648;8.640;2024-02-28T03:12:59;11.85;;;5.15;;
46086;SDS011;31824;49.648;8.640;2024-02-28T03:16:03;10.45;;;5.28;;
46086;SDS011;31824;49.648;8.640;2024-02-28T03:19:05;11.60;;;5.55;;
46086;SDS011;31824;49.648;8.640;2024-02-28T03:22:07;14.68;;;6.00;;
46086;SDS011;31824;49.648;8.640;2024-02-28T03:25:10;13.20;;;5.25;;
46086;SDS011;31824;49.648;8.640;2024-02-28T03:28:12;15.10;;;5.95;;
46086;SDS011;31824;49.648;8.640;2024-02-28T03:31:14;11.95;;;5.15;;
46086;SDS011;31824;49.648;8.640;2024-02-28T03:34:15;11.95;;;5.03;;
46086;SDS011;31824;49.648;8.640;2024-02-28T03:37:17;11.68;;;5.68;;
46086;SDS011;31824;49.648;8.640;2024-02-28T03:40:20;16.38;;;6.35;;
46086;SDS011;31824;49.648;8.640;2024-02-28T03:43:22;10.82;;;5.35;;
46086;SDS011;31824;49.648;8.640;2024-02-28T03:46:23;14.80;;;6.30;;
46086;SDS011;31824;49.648;8.640;2024-02-28T03:49:25;14.45;;;5.75;;
46086;SDS011;31824;49.648;8.640;2024-02-28T03:52:27;10.90;;;5.35;;
46086;SDS011;31824;49.648;8.640;2024-02-28T03:55:31;12.07;;;5.93;;
46086;SDS011;31824;49.648;8.640;2024-02-28T03:58:33;12.50;;;5.65;;
46086;SDS011;31824;49.648;8.640;2024-02-28T04:01:35;11.45;;;5.13;;
46086;SDS011;31824;49.648;8.640;2024-02-28T04:04:37;12.32;;;5.57;;
46086;SDS011;31824;49.648;8.640;2024-02-28T04:07:39;17.35;;;6.50;;
46086;SDS011;31824;49.648;8.640;2024-02-28T04:10:42;14.35;;;6.50;;
46086;SDS011;31824;49.648;8.640;2024-02-28T04:13:44;14.77;;;6.05;;
46086;SDS011;31824;49.648;8.640;2024-02-28T04:16:45;13.38;;;6.53;;
46086;SDS011;31824;49.648;8.640;2024-02-28T04:19:48;15.15;;;6.30;;
46086;SDS011;31824;49.648;8.640;2024-02-28T04:22:50;17.25;;;8.07;;
46086;SDS011;31824;49.648;8.640;2024-02-28T04:25:53;15.43;;;7.20;;
46086;SDS011;31824;49.648;8.640;2024-02-28T04:28:54;15.32;;;6.72;;
46086;SDS011;31824;49.648;8.640;2024-02-28T04:31:57;13.25;;;6.22;;
46086;SDS011;31824;49.648;8.640;2024-02-28T04:34:59;13.88;;;6.55;;
46086;SDS011;31824;49.648;8.640;2024-02-28T04:38:01;15.05;;;6.78;;
46086;SDS011;31824;49.648;8.640;2024-02-28T04:41:04;12.93;;;6.25;;
46086;SDS011;31824;49.648;8.640;2024-02-28T04:44:06;15.75;;;7.05;;
46086;SDS011;31824;49.648;8.640;2024-02-28T04:47:07;14.38;;;6.50;;
46086;SDS011;31824;49.648;8.640;2024-02-28T04:50:09;15.30;;;6.85;;
46086;SDS011;31824;49.648;8.640;2024-02-28T04:53:12;16.88;;;6.63;;
46086;SDS011;31824;49.648;8.640;2024-02-28T04:56:15;14.10;;;6.63;;
46086;SDS011;31824;49.648;8.640;2024-02-28T04:59:16;14.75;;;6.22;;
46086;SDS011;31824;49.648;8.640;2024-02-28T05:02:18;12.50;;;6.10;;
46086;SDS011;31824;49.648;8.640;2024-02-28T05:05:23;11.00;;;5.28;;
46086;SDS011;31824;49.648;8.640;2024-02-28T05:08:25;16.27;;;6.72;;
46086;SDS011;31824;49.648;8.640;2024-02-28T05:11:30;15.30;;;6.50;;
46086;SDS011;31824;49.648;8.640;2024-02-28T05:14:31;12.93;;;6.07;;
46086;SDS011;31824;49.648;8.640;2024-02-28T05:17:33;18.85;;;6.13;;
46086;SDS011;31824;49.648;8.640;2024-02-28T05:20:35;13.68;;;6.13;;
46086;SDS011;31824;49.648;8.640;2024-02-28T05:23:37;15.75;;;6.35;;
46086;SDS011;31824;49.648;8.640;2024-02-28T05:26:40;15.88;;;7.18;;
46086;SDS011;31824;49.648;8.640;2024-02-28T05:29:43;16.50;;;6.78;;
46086;SDS011;31824;49.648;8.640;2024-02-28T05:32:44;17.08;;;6.85;;
46086;SDS011;31824;49.648;8.640;2024-02-28T05:35:46;16.63;;;7.18;;
46086;SDS011;31824;49.648;8.640;2024-02-28T05:38:48;15.23;;;6.65;;
46086;SDS011;31824;49.648;8.640;2024-02-28T05:41:51;15.68;;;7.10;;
46086;SDS011;31824;49.648;8.640;2024-02-28T05:44:53;17.13;;;7.57;;
46086;SDS011;31824;49.648;8.640;2024-02-28T05:47:55;15.88;;;6.93;;
46086;SDS011;31824;49.648;8.640;2024-02-28T05:50:56;16.30;;;6.45;;
46086;SDS011;31824;49.648;8.640;2024-02-28T05:53:58;13.75;;;6.72;;
46086;SDS011;31824;49.648;8.640;2024-02-28T05:57:01;13.25;;;5.95;;
46086;SDS011;31824;49.648;8.640;2024-02-28T06:00:04;16.58;;;6.97;;
46086;SDS011;31824;49.648;8.640;2024-02-28T06:03:14;16.85;;;6.18;;
46086;SDS011;31824;49.648;8.640;2024-02-28T06:06:16;15.75;;;6.75;;
46086;SDS011;31824;49.648;8.640;2024-02-28T06:09:18;15.07;;;5.80;;
46086;SDS011;31824;49.648;8.640;2024-02-28T06:12:21;17.95;;;7.05;;
46086;SDS011;31824;49.648;8.640;2024-02-28T06:15:23;17.05;;;8.20;;
46086;SDS011;31824;49.648;8.640;2024-02-28T06:18:25;12.57;;;6.53;;
46086;SDS011;31824;49.648;8.640;2024-02-28T06:21:34;19.65;;;7.15;;
46086;SDS011;31824;49.648;8.640;2024-02-28T06:24:36;16.73;;;5.90;;
46086;SDS011;31824;49.648;8.640;2024-02-28T06:27:39;18.42;;;7.18;;
46086;SDS011;31824;49.648;8.640;2024-02-28T06:30:42;15.68;;;6.30;;
46086;SDS011;31824;49.648;8.640;2024-02-28T06:33:44;16.20;;;6.70;;
46086;SDS011;31824;49.648;8.640;2024-02-28T06:36:46;14.48;;;6.45;;
46086;SDS011;31824;49.648;8.640;2024-02-28T06:39:47;17.85;;;6.55;;
46086;SDS011;31824;49.648;8.640;2024-02-28T06:42:50;13.68;;;6.13;;
46086;SDS011;31824;49.648;8.640;2024-02-28T06:45:52;15.48;;;7.07;;
46086;SDS011;31824;49.648;8.640;2024-02-28T06:48:54;13.38;;;7.05;;
46086;SDS011;31824;49.648;8.640;2024-02-28T06:51:56;16.58;;;7.10;;
46086;SDS011;31824;49.648;8.640;2024-02-28T06:55:00;15.90;;;7.13;;
46086;SDS011;31824;49.648;8.640;2024-02-28T06:58:08;22.27;;;6.85;;
46086;SDS011;31824;49.648;8.640;2024-02-28T07:01:10;14.57;;;6.70;;
46086;SDS011;31824;49.648;8.640;2024-02-28T07:04:12;14.45;;;7.25;;
46086;SDS011;31824;49.648;8.640;2024-02-28T07:07:14;15.77;;;7.10;;
46086;SDS011;31824;49.648;8.640;2024-02-28T07:10:16;15.75;;;6.32;;
46086;SDS011;31824;49.648;8.640;2024-02-28T07:13:19;15.88;;;6.63;;
46086;SDS011;31824;49.648;8.640;2024-02-28T07:16:20;14.45;;;6.40;;
46086;SDS011;31824;49.648;8.640;2024-02-28T07:19:22;23.55;;;7.00;;
46086;SDS011;31824;49.648;8.640;2024-02-28T07:22:25;12.85;;;6.43;;
46086;SDS011;31824;49.648;8.640;2024-02-28T07:25:27;16.45;;;7.13;;
46086;SDS011;31824;49.648;8.640;2024-02-28T07:28:30;14.95;;;6.10;;
46086;SDS011;31824;49.648;8.640;2024-02-28T07:31:32;16.80;;;6.60;;
46086;SDS011;31824;49.648;8.640;2024-02-28T07:34:34;14.00;;;5.95;;
46086;SDS011;31824;49.648;8.640;2024-02-28T07:37:36;16.00;;;6.57;;
46086;SDS011;31824;49.648;8.640;2024-02-28T07:40:39;15.38;;;7.22;;
46086;SDS011;31824;49.648;8.640;2024-02-28T07:43:43;14.93;;;6.65;;
46086;SDS011;31824;49.648;8.640;2024-02-28T07:46:44;14.23;;;5.97;;
46086;SDS011;31824;49.648;8.640;2024-02-28T07:49:46;15.05;;;6.15;;
46086;SDS011;31824;49.648;8.640;2024-02-28T07:52:48;12.07;;;5.75;;
46086;SDS011;31824;49.648;8.640;2024-02-28T07:55:50;12.95;;;5.25;;
46086;SDS011;31824;49.648;8.640;2024-02-28T07:58:53;9.65;;;4.47;;
46086;SDS011;31824;49.648;8.640;2024-02-28T08:01:54;18.23;;;6.68;;
46086;SDS011;31824;49.648;8.640;2024-02-28T08:04:57;15.55;;;6.82;;
46086;SDS011;31824;49.648;8.640;2024-02-28T08:07:58;15.45;;;6.82;;
46086;SDS011;31824;49.648;8.640;2024-02-28T08:11:00;15.45;;;6.32;;
46086;SDS011;31824;49.648;8.640;2024-02-28T08:14:03;15.75;;;7.10;;
46086;SDS011;31824;49.648;8.640;2024-02-28T08:17:05;13.20;;;5.93;;
46086;SDS011;31824;49.648;8.640;2024-02-28T08:20:07;16.25;;;7.05;;
46086;SDS011;31824;49.648;8.640;2024-02-28T08:23:09;18.42;;;6.88;;
46086;SDS011;31824;49.648;8.640;2024-02-28T08:26:11;14.85;;;7.13;;
46086;SDS011;31824;49.648;8.640;2024-02-28T08:29:14;16.13;;;6.25;;
46086;SDS011;31824;49.648;8.640;2024-02-28T08:32:16;16.05;;;7.80;;
46086;SDS011;31824;49.648;8.640;2024-02-28T08:35:19;16.20;;;6.28;;
46086;SDS011;31824;49.648;8.640;2024-02-28T08:38:21;14.70;;;7.18;;
46086;SDS011;31824;49.648;8.640;2024-02-28T08:41:22;21.45;;;8.23;;
46086;SDS011;31824;49.648;8.640;2024-02-28T08:44:26;21.58;;;8.93;;
46086;SDS011;31824;49.648;8.640;2024-02-28T08:47:27;20.70;;;9.73;;
46086;SDS011;31824;49.648;8.640;2024-02-28T08:50:29;17.05;;;7.55;;
46086;SDS011;31824;49.648;8.640;2024-02-28T08:53:31;21.15;;;9.65;;
46086;SDS011;31824;49.648;8.640;2024-02-28T08:56:33;25.17;;;10.13;;
46086;SDS011;31824;49.648;8.640;2024-02-28T08:59:36;22.98;;;9.32;;
46086;SDS011;31824;49.648;8.640;2024-02-28T09:02:38;19.70;;;9.73;;
46086;SDS011;31824;49.648;8.640;2024-02-28T09:05:40;14.40;;;6.93;;
46086;SDS011;31824;49.648;8.640;2024-02-28T09:08:41;17.58;;;7.70;;
46086;SDS011;31824;49.648;8.640;2024-02-28T09:11:45;19.55;;;8.45;;
46086;SDS011;31824;49.648;8.640;2024-02-28T09:14:48;20.77;;;9.30;;
46086;SDS011;31824;49.648;8.640;2024-02-28T09:17:56;21.13;;;8.25;;
46086;SDS011;31824;49.648;8.640;2024-02-28T09:20:57;25.63;;;8.27;;
46086;SDS011;31824;49.648;8.640;2024-02-28T09:24:00;21.25;;;9.07;;
46086;SDS011;31824;49.648;8.640;2024-02-28T09:27:02;20.95;;;8.27;;
46086;SDS011;31824;49.648;8.640;2024-02-28T09:30:07;24.27;;;9.48;;
46086;SDS011;31824;49.648;8.640;2024-02-28T09:33:09;23.25;;;10.05;;
46086;SDS011;31824;49.648;8.640;2024-02-28T09:36:11;18.60;;;8.65;;
46086;SDS011;31824;49.648;8.640;2024-02-28T09:39:13;18.70;;;9.30;;
46086;SDS011;31824;49.648;8.640;2024-02-28T09:42:16;22.60;;;9.68;;
46086;SDS011;31824;49.648;8.640;2024-02-28T09:45:20;21.95;;;9.52;;
46086;SDS011;31824;49.648;8.640;2024-02-28T09:48:23;16.98;;;6.88;;
46086;SDS011;31824;49.648;8.640;2024-02-28T09:51:29;17.17;;;7.28;;
46086;SDS011;31824;49.648;8.640;2024-02-28T09:54:34;17.05;;;7.80;;
46086;SDS011;31824;49.648;8.640;2024-02-28T09:57:35;17.48;;;7.80;;
46086;SDS011;31824;49.648;8.640;2024-02-28T10:00:40;17.75;;;8.10;;
46086;SDS011;31824;49.648;8.640;2024-02-28T10:03:45;17.95;;;7.65;;
46086;SDS011;31824;49.648;8.640;2024-02-28T10:06:49;18.20;;;8.63;;
46086;SDS011;31824;49.648;8.640;2024-02-28T10:09:51;18.67;;;8.93;;
46086;SDS011;31824;49.648;8.640;2024-02-28T10:12:53;19.92;;;9.38;;
46086;SDS011;31824;49.648;8.640;2024-02-28T10:15:56;20.92;;;8.68;;
46086;SDS011;31824;49.648;8.640;2024-02-28T10:18:58;21.15;;;9.80;;
46086;SDS011;31824;49.648;8.640;2024-02-28T10:22:00;21.35;;;8.20;;
46086;SDS011;31824;49.648;8.640;2024-02-28T10:25:02;19.08;;;7.38;;
46086;SDS011;31824;49.648;8.640;2024-02-28T10:28:05;18.48;;;9.02;;
46086;SDS011;31824;49.648;8.640;2024-02-28T10:31:08;17.60;;;8.73;;
46086;SDS011;31824;49.648;8.640;2024-02-28T10:34:10;21.90;;;9.18;;
46086;SDS011;31824;49.648;8.640;2024-02-28T10:37:12;22.67;;;8.50;;
46086;SDS011;31824;49.648;8.640;2024-02-28T10:40:14;19.80;;;8.57;;
46086;SDS011;31824;49.648;8.640;2024-02-28T10:43:18;25.65;;;8.40;;
46086;SDS011;31824;49.648;8.640;2024-02-28T10:46:22;19.25;;;8.13;;
46086;SDS011;31824;49.648;8.640;2024-02-28T10:49:37;20.38;;;8.63;;
46086;SDS011;31824;49.648;8.640;2024-02-28T10:52:39;20.13;;;8.55;;
46086;SDS011;31824;49.648;8.640;2024-02-28T10:55:48;17.90;;;7.43;;
46086;SDS011;31824;49.648;8.640;2024-02-28T10:58:50;17.02;;;7.72;;
46086;SDS011;31824;49.648;8.640;2024-02-28T11:01:57;18.55;;;8.75;;
46086;SDS011;31824;49.648;8.640;2024-02-28T11:04:59;18.38;;;7.18;;
46086;SDS011;31824;49.648;8.640;2024-02-28T11:08:03;17.65;;;8.07;;
46086;SDS011;31824;49.648;8.640;2024-02-28T11:11:06;19.63;;;9.00;;
46086;SDS011;31824;49.648;8.640;2024-02-28T11:14:14;17.38;;;7.30;;
46086;SDS011;31824;49.648;8.640;2024-02-28T11:17:18;18.63;;;8.70;;
46086;SDS011;31824;49.648;8.640;2024-02-28T11:20:31;19.20;;;8.73;;
46086;SDS011;31824;49.648;8.640;2024-02-28T11:23:35;17.35;;;7.05;;
46086;SDS011;31824;49.648;8.640;2024-02-28T11:26:38;17.17;;;7.95;;
46086;SDS011;31824;49.648;8.640;2024-02-28T11:29:40;17.08;;;7.85;;
46086;SDS011;31824;49.648;8.640;2024-02-28T11:32:43;18.60;;;7.93;;
46086;SDS011;31824;49.648;8.640;2024-02-28T11:35:53;17.25;;;8.20;;
46086;SDS011;31824;49.648;8.640;2024-02-28T11:38:56;21.95;;;8.05;;
46086;SDS011;31824;49.648;8.640;2024-02-28T11:42:10;16.45;;;8.27;;
46086;SDS011;31824;49.648;8.640;2024-02-28T11:45:14;16.70;;;8.30;;
46086;SDS011;31824;49.648;8.640;2024-02-28T11:48:18;18.75;;;7.88;;
46086;SDS011;31824;49.648;8.640;2024-02-28T11:51:20;14.85;;;7.07;;
46086;SDS011;31824;49.648;8.640;2024-02-28T11:54:22;17.67;;;7.68;;
46086;SDS011;31824;49.648;8.640;2024-02-28T11:57:23;17.63;;;8.05;;
46086;SDS011;31824;49.648;8.640;2024-02-28T12:00:25;17.00;;;7.97;;
46086;SDS011;31824;49.648;8.640;2024-02-28T12:03:29;16.02;;;6.72;;
46086;SDS011;31824;49.648;8.640;2024-02-28T12:06:31;17.42;;;7.68;;
46086;SDS011;31824;49.648;8.640;2024-02-28T12:09:32;15.45;;;7.20;;
46086;SDS011;31824;49.648;8.640;2024-02-28T12:12:43;17.25;;;7.93;;
46086;SDS011;31824;49.648;8.640;2024-02-28T12:15:47;14.82;;;5.57;;
46086;SDS011;31824;49.648;8.640;2024-02-28T12:18:51;15.63;;;7.80;;
46086;SDS011;31824;49.648;8.640;2024-02-28T12:21:53;18.52;;;7.45;;
46086;SDS011;31824;49.648;8.640;2024-02-28T12:24:56;15.98;;;7.05;;
46086;SDS011;31824;49.648;8.640;2024-02-28T12:27:57;15.10;;;7.07;;
46086;SDS011;31824;49.648;8.640;2024-02-28T12:30:59;13.57;;;6.90;;
46086;SDS011;31824;49.648;8.640;2024-02-28T12:34:03;16.02;;;7.20;;
46086;SDS011;31824;49.648;8.640;2024-02-28T12:37:06;14.52;;;6.65;;
46086;SDS011;31824;49.648;8.640;2024-02-28T12:40:08;13.07;;;6.25;;
46086;SDS011;31824;49.648;8.640;2024-02-28T12:43:10;14.77;;;6.35;;
46086;SDS011;31824;49.648;8.640;2024-02-28T12:46:12;14.75;;;7.15;;
46086;SDS011;31824;49.648;8.640;2024-02-28T12:49:16;14.77;;;6.85;;
46086;SDS011;31824;49.648;8.640;2024-02-28T12:52:17;11.77;;;5.10;;
46086;SDS011;31824;49.648;8.640;2024-02-28T12:55:19;12.05;;;5.20;;
46086;SDS011;31824;49.648;8.640;2024-02-28T12:58:22;16.52;;;7.05;;
46086;SDS011;31824;49.648;8.640;2024-02-28T13:01:27;11.57;;;5.18;;
46086;SDS011;31824;49.648;8.640;2024-02-28T13:04:31;14.55;;;5.20;;
46086;SDS011;31824;49.648;8.640;2024-02-28T13:07:33;8.60;;;4.13;;
46086;SDS011;31824;49.648;8.640;2024-02-28T13:10:37;12.75;;;5.45;;
46086;SDS011;31824;49.648;8.640;2024-02-28T13:13:42;14.45;;;5.93;;
46086;SDS011;31824;49.648;8.640;2024-02-28T13:16:44;11.05;;;5.03;;
46086;SDS011;31824;49.648;8.640;2024-02-28T13:19:47;11.35;;;5.82;;
46086;SDS011;31824;49.648;8.640;2024-02-28T13:22:49;11.95;;;5.78;;
46086;SDS011;31824;49.648;8.640;2024-02-28T13:25:51;14.93;;;5.80;;
46086;SDS011;31824;49.648;8.640;2024-02-28T13:28:53;12.77;;;5.05;;
46086;SDS011;31824;49.648;8.640;2024-02-28T13:31:55;11.20;;;5.57;;
46086;SDS011;31824;49.648;8.640;2024-02-28T13:34:58;11.48;;;5.85;;
46086;SDS011;31824;49.648;8.640;2024-02-28T13:38:01;11.73;;;5.50;;
46086;SDS011;31824;49.648;8.640;2024-02-28T13:41:03;10.55;;;5.32;;
46086;SDS011;31824;49.648;8.640;2024-02-28T13:44:05;10.45;;;5.13;;
46086;SDS011;31824;49.648;8.640;2024-02-28T13:47:07;9.77;;;4.55;;
46086;SDS011;31824;49.648;8.640;2024-02-28T13:50:10;10.18;;;4.60;;
46086;SDS011;31824;49.648;8.640;2024-02-28T13:53:12;13.55;;;5.40;;
46086;SDS011;31824;49.648;8.640;2024-02-28T13:56:16;10.77;;;5.30;;
46086;SDS011;31824;49.648;8.640;2024-02-28T13:59:17;12.30;;;4.90;;
46086;SDS011;31824;49.648;8.640;2024-02-28T14:02:19;10.27;;;5.38;;
46086;SDS011;31824;49.648;8.640;2024-02-28T14:05:23;8.73;;;4.25;;
46086;SDS011;31824;49.648;8.640;2024-02-28T14:08:25;10.15;;;5.05;;
46086;SDS011;31824;49.648;8.640;2024-02-28T14:11:27;10.27;;;4.85;;
46086;SDS011;31824;49.648;8.640;2024-02-28T14:14:29;11.95;;;5.40;;
46086;SDS011;31824;49.648;8.640;2024-02-28T14:17:31;10.93;;;5.20;;
46086;SDS011;31824;49.648;8.640;2024-02-28T14:20:34;8.55;;;4.38;;
46086;SDS011;31824;49.648;8.640;2024-02-28T14:23:36;9.48;;;4.45;;
46086;SDS011;31824;49.648;8.640;2024-02-28T14:26:37;10.50;;;5.00;;
46086;SDS011;31824;49.648;8.640;2024-02-28T14:29:39;9.75;;;4.75;;
46086;SDS011;31824;49.648;8.640;2024-02-28T14:32:42;8.75;;;4.43;;
46086;SDS011;31824;49.648;8.640;2024-02-28T14:35:46;9.27;;;4.60;;
46086;SDS011;31824;49.648;8.640;2024-02-28T14:38:48;9.55;;;4.65;;
46086;SDS011;31824;49.648;8.640;2024-02-28T14:41:49;11.55;;;4.93;;
46086;SDS011;31824;49.648;8.640;2024-02-28T14:44:51;9.77;;;4.75;;
46086;SDS011;31824;49.648;8.640;2024-02-28T14:47:54;8.63;;;5.05;;
46086;SDS011;31824;49.648;8.640;2024-02-28T14:50:58;10.15;;;4.50;;
46086;SDS011;31824;49.648;8.640;2024-02-28T14:53:59;8.13;;;4.13;;
46086;SDS011;31824;49.648;8.640;2024-02-28T14:57:01;9.98;;;4.50;;
46086;SDS011;31824;49.648;8.640;2024-02-28T15:00:03;9.68;;;4.60;;
46086;SDS011;31824;49.648;8.640;2024-02-28T15:03:09;8.43;;;4.03;;
46086;SDS011;31824;49.648;8.640;2024-02-28T15:06:12;6.78;;;3.78;;
46086;SDS011;31824;49.648;8.640;2024-02-28T15:09:14;9.02;;;3.58;;
46086;SDS011;31824;49.648;8.640;2024-02-28T15:12:16;6.53;;;3.25;;
46086;SDS011;31824;49.648;8.640;2024-02-28T15:15:18;6.03;;;3.20;;
46086;SDS011;31824;49.648;8.640;2024-02-28T15:18:20;7.95;;;3.53;;
46086;SDS011;31824;49.648;8.640;2024-02-28T15:21:24;8.40;;;3.97;;
46086;SDS011;31824;49.648;8.640;2024-02-28T15:24:28;7.03;;;3.30;;
46086;SDS011;31824;49.648;8.640;2024-02-28T15:27:29;8.60;;;3.60;;
46086;SDS011;31824;49.648;8.640;2024-02-28T15:30:31;7.05;;;3.08;;
46086;SDS011;31824;49.648;8.640;2024-02-28T15:33:33;8.63;;;3.33;;
46086;SDS011;31824;49.648;8.640;2024-02-28T15:36:36;8.20;;;3.80;;
46086;SDS011;31824;49.648;8.640;2024-02-28T15:39:39;33.53;;;11.93;;
46086;SDS011;31824;49.648;8.640;2024-02-28T15:42:41;13.95;;;5.90;;
46086;SDS011;31824;49.648;8.640;2024-02-28T15:45:43;11.70;;;5.28;;
46086;SDS011;31824;49.648;8.640;2024-02-28T15:48:45;10.05;;;4.63;;
46086;SDS011;31824;49.648;8.640;2024-02-28T15:51:48;10.85;;;5.03;;
46086;SDS011;31824;49.648;8.640;2024-02-28T15:54:50;13.25;;;5.68;;
46086;SDS011;31824;49.648;8.640;2024-02-28T15:57:52;11.45;;;5.10;;
46086;SDS011;31824;49.648;8.640;2024-02-28T16:00:56;14.95;;;6.13;;
46086;SDS011;31824;49.648;8.640;2024-02-28T16:03:58;13.00;;;5.40;;
46086;SDS011;31824;49.648;8.640;2024-02-28T16:07:02;11.88;;;4.95;;
46086;SDS011;31824;49.648;8.640;2024-02-28T16:10:04;10.88;;;4.97;;
46086;SDS011;31824;49.648;8.640;2024-02-28T16:13:07;10.82;;;4.80;;
46086;SDS011;31824;49.648;8.640;2024-02-28T16:16:09;13.18;;;5.68;;
46086;SDS011;31824;49.648;8.640;2024-02-28T16:19:11;10.90;;;4.85;;
46086;SDS011;31824;49.648;8.640;2024-02-28T16:22:27;10.68;;;5.25;;
46086;SDS011;31824;49.648;8.640;2024-02-28T16:25:29;10.32;;;4.53;;
46086;SDS011;31824;49.648;8.640;2024-02-28T16:28:31;10.95;;;5.15;;
46086;SDS011;31824;49.648;8.640;2024-02-28T16:31:33;10.30;;;4.97;;
46086;SDS011;31824;49.648;8.640;2024-02-28T16:34:35;11.52;;;4.60;;
46086;SDS011;31824;49.648;8.640;2024-02-28T16:37:38;9.00;;;4.60;;
46086;SDS011;31824;49.648;8.640;2024-02-28T16:40:40;9.20;;;4.40;;
46086;SDS011;31824;49.648;8.640;2024-02-28T16:43:42;9.80;;;4.47;;
46086;SDS011;31824;49.648;8.640;2024-02-28T16:46:47;9.35;;;4.55;;
46086;SDS011;31824;49.648;8.640;2024-02-28T16:49:50;12.85;;;4.57;;
46086;SDS011;31824;49.648;8.640;2024-02-28T16:52:53;12.60;;;4.07;;
46086;SDS011;31824;49.648;8.640;2024-02-28T16:55:55;8.50;;;3.80;;
46086;SDS011;31824;49.648;8.640;2024-02-28T16:58:58;9.73;;;4.43;;
46086;SDS011;31824;49.648;8.640;2024-02-28T17:02:01;8.90;;;3.58;;
46086;SDS011;31824;49.648;8.640;2024-02-28T17:05:02;9.52;;;4.10;;
46086;SDS011;31824;49.648;8.640;2024-02-28T17:08:07;8.48;;;4.05;;
46086;SDS011;31824;49.648;8.640;2024-02-28T17:11:09;8.23;;;4.00;;
46086;SDS011;31824;49.648;8.640;2024-02-28T17:14:13;8.93;;;3.95;;
46086;SDS011;31824;49.648;8.640;2024-02-28T17:17:15;7.93;;;3.60;;
46086;SDS011;31824;49.648;8.640;2024-02-28T17:20:20;10.48;;;4.00;;
46086;SDS011;31824;49.648;8.640;2024-02-28T17:23:23;7.35;;;3.80;;
46086;SDS011;31824;49.648;8.640;2024-02-28T17:26:27;18.23;;;4.10;;
46086;SDS011;31824;49.648;8.640;2024-02-28T17:29:29;9.77;;;4.10;;
46086;SDS011;31824;49.648;8.640;2024-02-28T17:32:32;9.25;;;3.90;;
46086;SDS011;31824;49.648;8.640;2024-02-28T17:35:34;8.85;;;3.83;;
46086;SDS011;31824;49.648;8.640;2024-02-28T17:38:38;10.23;;;4.40;;
46086;SDS011;31824;49.648;8.640;2024-02-28T17:41:39;9.55;;;4.57;;
46086;SDS011;31824;49.648;8.640;2024-02-28T17:44:41;9.50;;;3.95;;
46086;SDS011;31824;49.648;8.640;2024-02-28T17:47:43;10.02;;;4.00;;
46086;SDS011;31824;49.648;8.640;2024-02-28T17:50:45;8.93;;;4.18;;
46086;SDS011;31824;49.648;8.640;2024-02-28T17:53:48;9.13;;;4.38;;
46086;SDS011;31824;49.648;8.640;2024-02-28T17:56:51;7.60;;;3.80;;
46086;SDS011;31824;49.648;8.640;2024-02-28T17:59:53;8.52;;;3.35;;
46086;SDS011;31824;49.648;8.640;2024-02-28T18:02:55;14.98;;;4.60;;
46086;SDS011;31824;49.648;8.640;2024-02-28T18:05:56;8.65;;;3.90;;